Time;durP1;ratioP1;P1;durP2;ratioP2;P2;SDS_P1;SDS_P2;PMS_P1;PMS_P2;Temp;Humidity;BMP_temperature;BMP_pressure;BME280_temperature;BME280_humidity;BME280_pressure;Samples;Min_cycle;Max_cycle;Signal;HPM_P1;HPM_P2
2021/05/08 00:03:28;;;;;;;3.92;2.17;;;4.00;99.90;;;;;;20906974;28;20482;-74
2021/05/08 00:13:29;;;;;;;2.80;1.90;;;3.80;99.90;;;;;;20906484;28;20021;-74
2021/05/08 00:23:30;;;;;;;4.53;2.10;;;4.00;99.90;;;;;;20904869;28;20036;-75
2021/05/08 00:33:31;;;;;;;3.77;1.70;;;4.00;99.90;;;;;;20905731;28;20549;-74
2021/05/08 00:43:32;;;;;;;3.00;1.83;;;4.50;99.90;;;;;;20921320;28;20025;-74
2021/05/08 00:53:34;;;;;;;3.83;2.13;;;4.60;99.90;;;;;;20928676;28;20028;-74
2021/05/08 01:03:35;;;;;;;2.80;2.00;;;4.40;99.90;;;;;;20918002;28;20029;-74
2021/05/08 01:13:36;;;;;;;5.55;2.65;;;4.00;99.90;;;;;;20917561;28;20031;-74
2021/05/08 01:23:37;;;;;;;3.83;2.28;;;4.20;99.90;;;;;;20916539;28;20035;-74
2021/05/08 01:33:40;;;;;;;;;;;4.30;99.90;;;;;;20916467;28;20048;-74
2021/05/08 01:43:41;;;;;;;;;;;4.20;99.90;;;;;;20932490;28;20321;-75
2021/05/08 01:53:43;;;;;;;4.00;2.13;;;4.10;99.90;;;;;;20930892;28;20184;-73
2021/05/08 02:03:44;;;;;;;4.13;2.20;;;4.20;99.90;;;;;;20915027;28;20032;-74
2021/05/08 02:13:46;;;;;;;3.13;1.85;;;4.20;99.90;;;;;;20912821;28;20025;-74
2021/05/08 02:23:47;;;;;;;3.80;2.03;;;4.20;99.90;;;;;;20912909;28;20442;-74
2021/05/08 02:33:49;;;;;;;4.82;2.38;;;4.10;99.90;;;;;;20912798;28;20499;-74
2021/05/08 02:43:50;;;;;;;1.87;1.53;;;4.00;99.90;;;;;;20910465;28;20052;-75
2021/05/08 02:53:51;;;;;;;2.92;1.88;;;4.00;99.90;;;;;;20911235;28;20028;-74
2021/05/08 03:03:52;;;;;;;2.75;2.10;;;3.30;99.90;;;;;;20908616;28;20040;-74
2021/05/08 03:13:53;;;;;;;;;;;3.60;99.90;;;;;;20910549;28;20029;-74
2021/05/08 03:23:55;;;;;;;4.80;2.27;;;3.50;99.90;;;;;;20917973;28;19912;-75
2021/05/08 03:33:57;;;;;;;3.63;1.80;;;3.30;99.90;;;;;;20907937;28;20033;-75
2021/05/08 03:43:58;;;;;;;;;;;3.40;99.90;;;;;;20913275;28;20044;-77
2021/05/08 03:53:58;;;;;;;4.10;1.92;;;3.40;99.90;;;;;;20916316;28;19913;-77
2021/05/08 04:03:59;;;;;;;2.03;1.63;;;3.30;99.90;;;;;;20910589;28;20519;-77
2021/05/08 04:14:00;;;;;;;2.90;1.80;;;3.30;99.90;;;;;;20934284;28;20029;-78
2021/05/08 04:24:01;;;;;;;2.80;1.87;;;3.30;99.90;;;;;;20924603;28;20079;-77
2021/05/08 04:34:02;;;;;;;3.40;2.03;;;3.30;99.90;;;;;;20927272;28;20025;-76
2021/05/08 04:44:03;;;;;;;;;;;3.40;99.90;;;;;;20977791;28;20032;-77
2021/05/08 04:54:04;;;;;;;2.88;2.00;;;3.50;99.90;;;;;;21004539;28;20378;-77
2021/05/08 05:04:05;;;;;;;5.68;2.47;;;3.40;99.90;;;;;;21003760;28;20029;-77
2021/05/08 05:14:06;;;;;;;5.37;2.90;;;3.80;99.90;;;;;;21001352;28;20025;-77
2021/05/08 05:24:07;;;;;;;15.60;3.23;;;4.20;99.90;;;;;;20998608;28;20028;-77
2021/05/08 05:34:08;;;;;;;4.55;3.08;;;4.50;99.90;;;;;;21002564;28;20101;-75
2021/05/08 05:44:09;;;;;;;3.87;2.67;;;4.90;99.90;;;;;;20997732;28;20068;-75
2021/05/08 05:54:10;;;;;;;4.70;3.37;;;5.60;99.90;;;;;;20997013;28;20032;-75
2021/05/08 06:04:11;;;;;;;4.57;3.30;;;5.40;99.90;;;;;;20997119;28;20030;-74
2021/05/08 06:14:12;;;;;;;6.30;3.73;;;5.30;99.90;;;;;;20996456;28;20701;-75
2021/05/08 06:24:12;;;;;;;3.93;2.93;;;5.70;99.90;;;;;;20995991;28;20398;-76
2021/05/08 06:34:13;;;;;;;4.67;2.50;;;6.30;99.90;;;;;;20994259;28;20395;-76
2021/05/08 06:44:14;;;;;;;3.00;2.27;;;7.40;99.90;;;;;;20992939;28;20055;-75
2021/05/08 06:54:16;;;;;;;2.70;1.63;;;8.40;99.90;;;;;;20993771;28;20031;-75
2021/05/08 07:04:17;;;;;;;4.07;2.20;;;9.10;99.90;;;;;;20992607;28;20028;-75
2021/05/08 07:14:18;;;;;;;3.53;2.37;;;9.40;99.90;;;;;;20992166;28;20093;-75
2021/05/08 07:24:19;;;;;;;7.03;2.87;;;10.10;99.90;;;;;;20990316;28;20491;-76
2021/05/08 07:34:19;;;;;;;7.37;3.07;;;10.20;99.90;;;;;;20970281;28;20054;-76
2021/05/08 07:44:20;;;;;;;8.70;3.47;;;11.20;99.90;;;;;;20926812;28;20096;-76
2021/05/08 07:54:21;;;;;;;5.82;2.83;;;11.70;99.90;;;;;;20952046;28;20453;-76
2021/05/08 08:04:22;;;;;;;6.67;3.47;;;12.00;99.90;;;;;;20906883;28;20068;-75
2021/05/08 08:14:23;;;;;;;4.22;2.75;;;13.10;99.90;;;;;;20978710;28;20033;-75
2021/05/08 08:24:24;;;;;;;8.32;2.58;;;12.50;99.90;;;;;;20989173;28;20028;-75
2021/05/08 08:34:25;;;;;;;5.63;3.03;;;13.30;99.90;;;;;;20988211;28;20033;-75
2021/05/08 08:44:26;;;;;;;5.10;3.00;;;13.90;99.90;;;;;;20947228;28;20029;-75
2021/05/08 08:54:27;;;;;;;4.85;3.13;;;14.20;99.90;;;;;;20904931;28;20098;-75
2021/05/08 09:04:28;;;;;;;5.90;2.42;;;14.60;99.90;;;;;;20917278;28;20460;-75
2021/05/08 09:14:32;;;;;;;4.68;2.60;;;15.50;99.90;;;;;;20918469;28;20053;-76
2021/05/08 09:24:54;;;;;;;3.85;2.30;;;16.90;99.90;;;;;;20918130;28;20368;-75
2021/05/08 09:35:07;;;;;;;3.50;1.83;;;17.30;99.90;;;;;;20917016;28;20495;-74
2021/05/08 09:45:09;;;;;;;2.25;1.40;;;17.40;99.90;;;;;;20961748;28;20033;-74
2021/05/08 09:55:11;;;;;;;1.90;1.30;;;18.40;99.90;;;;;;20998477;28;20028;-74
2021/05/08 10:05:12;;;;;;;5.25;1.65;;;17.70;99.90;;;;;;20996132;28;20028;-74
2021/05/08 10:15:14;;;;;;;3.47;2.07;;;18.40;99.90;;;;;;20997592;28;20024;-74
2021/05/08 10:25:15;;;;;;;2.30;1.87;;;17.70;99.90;;;;;;20996823;28;20062;-74
2021/05/08 10:35:23;;;;;;;2.57;1.80;;;18.10;99.90;;;;;;20994317;28;20286;-74
2021/05/08 10:45:23;;;;;;;2.20;1.30;;;19.40;99.90;;;;;;20945036;28;20064;-75
2021/05/08 10:55:25;;;;;;;2.47;1.23;;;19.40;99.90;;;;;;20913199;28;20376;-74
2021/05/08 11:05:35;;;;;;;1.80;1.33;;;19.50;99.90;;;;;;20909210;28;20120;-75
2021/05/08 11:15:51;;;;;;;3.25;1.38;;;20.40;99.90;;;;;;20916984;28;20124;-79
2021/05/08 11:25:52;;;;;;;3.40;0.90;;;20.00;99.90;;;;;;20919136;28;20426;-79
2021/05/08 11:36:04;;;;;;;1.80;0.70;;;20.30;99.90;;;;;;20919618;28;20442;-78
2021/05/08 11:46:05;;;;;;;0.67;0.60;;;21.50;99.70;;;;;;20921750;28;20036;-79
2021/05/08 11:56:05;;;;;;;1.30;0.60;;;20.60;97.10;;;;;;20921641;28;20025;-78
2021/05/08 12:06:14;;;;;;;1.33;0.60;;;20.30;98.70;;;;;;20917935;28;20025;-77
2021/05/08 12:16:16;;;;;;;1.40;0.40;;;21.60;95.00;;;;;;20920508;28;20029;-78
2021/05/08 12:26:18;;;;;;;0.50;0.37;;;20.70;98.70;;;;;;20925447;28;20044;-78
2021/05/08 12:36:22;;;;;;;0.40;0.40;;;20.10;95.40;;;;;;20935779;28;20029;-78
2021/05/08 12:46:23;;;;;;;2.03;0.68;;;20.40;97.90;;;;;;20941580;28;20028;-78
2021/05/08 12:56:26;;;;;;;4.53;0.50;;;21.50;94.80;;;;;;20932388;28;20025;-78
2021/05/08 13:06:28;;;;;;;0.47;0.40;;;20.50;96.00;;;;;;20939993;28;20116;-78
2021/05/08 13:16:29;;;;;;;0.35;0.30;;;20.40;94.20;;;;;;20938598;28;20037;-78
2021/05/08 13:26:29;;;;;;;0.63;0.30;;;21.20;94.30;;;;;;20938184;28;20099;-79
2021/05/08 13:36:30;;;;;;;3.73;1.97;;;21.90;95.70;;;;;;20935661;28;20040;-79
2021/05/08 13:46:35;;;;;;;2.27;0.43;;;21.30;95.70;;;;;;20933931;28;20107;-79
2021/05/08 13:56:36;;;;;;;1.20;0.57;;;22.30;95.90;;;;;;20933082;28;20052;-78
2021/05/08 14:06:37;;;;;;;0.87;0.50;;;21.40;95.30;;;;;;20935003;28;20040;-79
2021/05/08 14:16:38;;;;;;;0.50;0.30;;;21.40;94.60;;;;;;20932484;28;20052;-79
2021/05/08 14:26:39;;;;;;;0.43;0.30;;;21.00;95.30;;;;;;20908712;28;20066;-77
2021/05/08 14:36:40;;;;;;;0.60;0.40;;;20.70;96.10;;;;;;20907690;28;20040;-79
2021/05/08 14:46:41;;;;;;;0.97;0.30;;;21.70;94.90;;;;;;20913399;28;20433;-78
2021/05/08 14:56:42;;;;;;;1.43;0.40;;;21.20;95.10;;;;;;20912447;28;20384;-79
2021/05/08 15:06:43;;;;;;;0.97;0.40;;;21.60;95.50;;;;;;20924811;28;20575;-78
2021/05/08 15:16:43;;;;;;;0.40;0.27;;;21.80;94.80;;;;;;20926403;28;20108;-79
2021/05/08 15:26:44;;;;;;;1.17;0.30;;;21.30;97.60;;;;;;20854062;22;20049;-77
2021/05/08 15:36:45;;;;;;;0.30;0.20;;;20.60;96.40;;;;;;20842291;28;20156;-77
2021/05/08 15:46:46;;;;;;;1.87;1.23;;;20.00;99.20;;;;;;20825511;28;20113;-77
2021/05/08 15:56:48;;;;;;;0.77;0.50;;;19.80;99.90;;;;;;20824960;28;20030;-76
2021/05/08 16:06:48;;;;;;;2.40;0.55;;;19.90;97.90;;;;;;20825847;28;20037;-77
2021/05/08 16:16:49;;;;;;;0.83;0.30;;;20.00;98.40;;;;;;20840945;28;20117;-76
2021/05/08 16:26:50;;;;;;;0.67;0.50;;;20.00;97.30;;;;;;20840430;28;20542;-76
2021/05/08 16:36:51;;;;;;;0.20;0.20;;;19.90;96.20;;;;;;20840104;28;20490;-76
2021/05/08 16:46:52;;;;;;;0.73;0.40;;;19.90;97.90;;;;;;20838802;28;20091;-77
2021/05/08 16:56:53;;;;;;;2.33;0.70;;;20.00;98.30;;;;;;20837979;28;20033;-77
2021/05/08 17:06:53;;;;;;;1.70;0.90;;;19.90;96.30;;;;;;20838369;28;20037;-77
2021/05/08 17:16:54;;;;;;;1.43;0.70;;;20.10;96.90;;;;;;20836217;28;20101;-77
2021/05/08 17:26:55;;;;;;;5.10;0.87;;;20.10;96.90;;;;;;20833526;28;20109;-77
2021/05/08 17:36:56;;;;;;;0.80;0.40;;;20.10;96.70;;;;;;20831528;28;20125;-77
2021/05/08 17:46:59;;;;;;;9.37;1.90;;;19.80;98.80;;;;;;20816577;28;20091;-76
2021/05/08 17:57:00;;;;;;;3.78;0.82;;;19.70;97.60;;;;;;20833321;28;20034;-76
2021/05/08 18:07:01;;;;;;;18.67;3.23;;;19.60;98.10;;;;;;20833851;28;20036;-76
2021/05/08 18:17:02;;;;;;;37.53;5.67;;;19.20;99.40;;;;;;20831519;28;20484;-76
2021/05/08 18:27:03;;;;;;;23.90;5.83;;;18.80;99.90;;;;;;20830940;28;20614;-76
2021/05/08 18:37:04;;;;;;;1.97;1.00;;;18.60;99.90;;;;;;20830031;28;20133;-76
2021/05/08 18:47:05;;;;;;;5.67;1.07;;;17.40;99.90;;;;;;20829095;28;20056;-76
2021/05/08 18:57:06;;;;;;;1.65;0.80;;;16.60;99.90;;;;;;20828475;28;20033;-76
2021/05/08 19:07:07;;;;;;;2.42;0.98;;;14.70;99.90;;;;;;20827982;28;20025;-76
2021/05/08 19:17:08;;;;;;;1.95;0.82;;;14.90;99.90;;;;;;20827305;28;20029;-76
2021/05/08 19:27:08;;;;;;;5.10;1.23;;;14.90;99.90;;;;;;20825220;28;20518;-76
2021/05/08 19:37:09;;;;;;;3.47;1.83;;;14.40;99.90;;;;;;20821643;28;20709;-76
2021/05/08 19:47:27;;;;;;;4.35;1.75;;;13.20;99.90;;;;;;20800861;28;20041;-76
2021/05/08 19:57:28;;;;;;;3.40;1.50;;;14.00;99.90;;;;;;20750951;28;20030;-77
2021/05/08 20:07:29;;;;;;;3.97;1.42;;;13.90;99.90;;;;;;20786094;28;20045;-77
2021/05/08 20:17:30;;;;;;;3.40;1.80;;;14.00;99.90;;;;;;20803727;28;20070;-77
2021/05/08 20:27:32;;;;;;;1.65;1.25;;;13.70;99.90;;;;;;20802573;28;20038;-77
2021/05/08 20:37:33;;;;;;;3.90;1.77;;;13.40;99.90;;;;;;20802628;28;20112;-77
2021/05/08 20:47:34;;;;;;;3.33;1.85;;;13.30;99.90;;;;;;20804525;28;20119;-77
2021/05/08 20:57:37;;;;;;;3.03;1.90;;;13.20;99.90;;;;;;20818362;28;20668;-77
2021/05/08 21:07:38;;;;;;;3.83;1.70;;;13.00;99.90;;;;;;20844147;28;20529;-78
2021/05/08 21:17:39;;;;;;;3.97;1.77;;;12.60;99.90;;;;;;20843722;28;20037;-79
2021/05/08 21:27:40;;;;;;;8.30;1.88;;;12.60;99.90;;;;;;20909745;22;20049;-76
2021/05/08 21:37:42;;;;;;;2.85;1.70;;;12.50;99.90;;;;;;20900186;28;20043;-75
2021/05/08 21:47:43;;;;;;;3.65;2.22;;;12.40;99.90;;;;;;20911701;28;20395;-76
2021/05/08 21:57:44;;;;;;;4.63;1.75;;;12.20;99.90;;;;;;20914781;28;20082;-76
2021/05/08 22:07:45;;;;;;;4.17;1.70;;;12.20;99.90;;;;;;20912165;28;20029;-76
2021/05/08 22:17:46;;;;;;;3.63;1.88;;;12.00;99.90;;;;;;20913391;28;20053;-76
2021/05/08 22:27:47;;;;;;;2.93;1.83;;;12.10;99.90;;;;;;20913229;28;20025;-76
2021/05/08 22:37:49;;;;;;;4.07;1.63;;;11.90;99.90;;;;;;20913014;28;20047;-76
2021/05/08 22:47:50;;;;;;;2.08;1.30;;;11.50;99.90;;;;;;20911114;28;20029;-75
2021/05/08 22:57:51;;;;;;;2.47;1.50;;;11.80;99.90;;;;;;20911551;28;20029;-75
2021/05/08 23:07:52;;;;;;;4.80;1.75;;;11.80;99.90;;;;;;20910606;28;20040;-76
2021/05/08 23:17:52;;;;;;;9.20;1.55;;;11.70;99.90;;;;;;20907752;28;20052;-76
2021/05/08 23:27:53;;;;;;;2.13;1.50;;;11.60;99.90;;;;;;20909236;28;20471;-76
2021/05/08 23:37:54;;;;;;;2.65;1.55;;;11.50;99.90;;;;;;20908552;28;20063;-75
2021/05/08 23:47:55;;;;;;;2.90;1.60;;;11.50;99.90;;;;;;20906771;28;20051;-75
2021/05/08 23:57:56;;;;;;;3.17;1.55;;;11.20;99.90;;;;;;20906204;28;20060;-76
